AAL433 KCLT-KIAD
Flight info
| Callsign | AAL433 |
|---|---|
| Flight time | 1h 0m |
| Altitude | 31000 |
| Route | KILNS5 AUDII DORRN CAVLR6 |
| Aircraft | B738/M-VGDW/C |
Departure
| Time | 2026-05-05 17:14 |
|---|---|
| Airport | Charlotte Douglas International Airport (KCLT) |
Arrival
| Time | 2026-05-05 18:14 |
|---|---|
| Airport | Washington Dulles International Airport (KIAD) |
| Time | Latitude | Longitude | Altitude | Speed | Heading |
|---|---|---|---|---|---|
| 2026-05-05 16:47 | 35.21982 | -80.94693 | 726 ft | 0 kts | 23° |
| 2026-05-05 17:07 | 35.21974 | -80.94698 | 725 ft | 2 kts | 23° |
| 2026-05-05 17:07 | 35.21960 | -80.94704 | 725 ft | 2 kts | 23° |
| 2026-05-05 17:08 | 35.21949 | -80.94710 | 725 ft | 0 kts | 23° |
| 2026-05-05 17:08 | 35.21938 | -80.94715 | 725 ft | 2 kts | 353° |
| 2026-05-05 17:08 | 35.21924 | -80.94707 | 724 ft | 2 kts | 313° |
| 2026-05-05 17:08 | 35.21917 | -80.94691 | 724 ft | 2 kts | 271° |
| 2026-05-05 17:09 | 35.21919 | -80.94680 | 724 ft | 1 kts | 246° |
| 2026-05-05 17:09 | 35.21922 | -80.94672 | 724 ft | 0 kts | 244° |
| 2026-05-05 17:10 | 35.21921 | -80.94673 | 724 ft | 1 kts | 244° |
| 2026-05-05 17:11 | 35.21879 | -80.94782 | 723 ft | 17 kts | 244° |
| 2026-05-05 17:11 | 35.21863 | -80.94839 | 723 ft | 10 kts | 271° |
| 2026-05-05 17:11 | 35.21880 | -80.95013 | 723 ft | 19 kts | 306° |
| 2026-05-05 17:11 | 35.22007 | -80.95055 | 726 ft | 22 kts | 356° |
| 2026-05-05 17:12 | 35.22206 | -80.95070 | 730 ft | 32 kts | 356° |
| 2026-05-05 17:12 | 35.22429 | -80.95091 | 734 ft | 30 kts | 355° |
| 2026-05-05 17:12 | 35.22626 | -80.95106 | 738 ft | 26 kts | 356° |
| 2026-05-05 17:12 | 35.22733 | -80.95206 | 738 ft | 23 kts | 269° |
| 2026-05-05 17:13 | 35.22622 | -80.95301 | 738 ft | 35 kts | 176° |
| 2026-05-05 17:13 | 35.22118 | -80.95263 | 730 ft | 106 kts | 177° |
| 2026-05-05 17:13 | 35.21183 | -80.95179 | 728 ft | 162 kts | 176° |
| 2026-05-05 17:13 | 35.19931 | -80.95023 | 963 ft | 195 kts | 178° |
| 2026-05-05 17:14 | 35.18589 | -80.94885 | 1838 ft | 197 kts | 177° |
| 2026-05-05 17:14 | 35.17175 | -80.94683 | 2368 ft | 219 kts | 174° |
| 2026-05-05 17:14 | 35.15659 | -80.94037 | 2784 ft | 245 kts | 147° |
| 2026-05-05 17:14 | 35.14574 | -80.92345 | 3280 ft | 268 kts | 111° |
| 2026-05-05 17:15 | 35.14458 | -80.90070 | 3989 ft | 281 kts | 77° |
| 2026-05-05 17:15 | 35.15328 | -80.87907 | 4811 ft | 286 kts | 56° |
| 2026-05-05 17:15 | 35.16519 | -80.85976 | 5575 ft | 288 kts | 55° |
| 2026-05-05 17:15 | 35.17656 | -80.83946 | 6273 ft | 292 kts | 60° |
| 2026-05-05 17:16 | 35.18658 | -80.81777 | 6918 ft | 298 kts | 64° |
| 2026-05-05 17:16 | 35.19614 | -80.79511 | 7569 ft | 304 kts | 65° |
| 2026-05-05 17:16 | 35.20577 | -80.77218 | 8286 ft | 306 kts | 65° |
| 2026-05-05 17:16 | 35.21557 | -80.74908 | 8909 ft | 312 kts | 66° |
| 2026-05-05 17:17 | 35.22486 | -80.72498 | 9546 ft | 316 kts | 69° |
| 2026-05-05 17:17 | 35.23345 | -80.70025 | 10232 ft | 318 kts | 70° |
| 2026-05-05 17:17 | 35.24215 | -80.67461 | 10584 ft | 333 kts | 69° |
| 2026-05-05 17:17 | 35.25147 | -80.64776 | 10807 ft | 352 kts | 69° |
| 2026-05-05 17:18 | 35.26132 | -80.61996 | 11076 ft | 367 kts | 68° |
| 2026-05-05 17:18 | 35.27169 | -80.59109 | 11753 ft | 368 kts | 67° |
| 2026-05-05 17:18 | 35.28207 | -80.56267 | 12487 ft | 368 kts | 66° |
| 2026-05-05 17:18 | 35.29257 | -80.53394 | 12919 ft | 376 kts | 66° |
| 2026-05-05 17:19 | 35.30333 | -80.50436 | 13440 ft | 381 kts | 66° |
| 2026-05-05 17:19 | 35.31395 | -80.47517 | 14033 ft | 384 kts | 66° |
| 2026-05-05 17:19 | 35.32501 | -80.44486 | 14510 ft | 390 kts | 66° |
| 2026-05-05 17:19 | 35.33600 | -80.41469 | 15073 ft | 392 kts | 66° |
| 2026-05-05 17:20 | 35.34697 | -80.38398 | 15665 ft | 394 kts | 65° |
| 2026-05-05 17:20 | 35.35797 | -80.35341 | 16181 ft | 397 kts | 65° |
| 2026-05-05 17:20 | 35.36920 | -80.32233 | 16670 ft | 401 kts | 65° |
| 2026-05-05 17:20 | 35.38073 | -80.29069 | 17007 ft | 408 kts | 65° |
| 2026-05-05 17:21 | 35.39226 | -80.25888 | 17550 ft | 409 kts | 65° |
| 2026-05-05 17:21 | 35.40375 | -80.22680 | 18087 ft | 411 kts | 65° |
| 2026-05-05 17:21 | 35.41522 | -80.19476 | 18546 ft | 414 kts | 65° |
| 2026-05-05 17:22 | 35.43848 | -80.12987 | 19542 ft | 418 kts | 66° |
| 2026-05-05 17:22 | 35.44945 | -80.09695 | 20133 ft | 417 kts | 67° |
| 2026-05-05 17:22 | 35.45987 | -80.06419 | 20560 ft | 420 kts | 68° |
| 2026-05-05 17:22 | 35.47036 | -80.03062 | 20948 ft | 423 kts | 68° |
| 2026-05-05 17:23 | 35.48085 | -79.99706 | 21365 ft | 426 kts | 68° |
| 2026-05-05 17:23 | 35.49157 | -79.96269 | 21696 ft | 431 kts | 68° |
| 2026-05-05 17:23 | 35.50217 | -79.92832 | 22090 ft | 433 kts | 68° |
| 2026-05-05 17:23 | 35.51276 | -79.89363 | 22501 ft | 435 kts | 68° |
| 2026-05-05 17:24 | 35.52334 | -79.85887 | 22806 ft | 439 kts | 68° |
| 2026-05-05 17:24 | 35.53381 | -79.82385 | 23203 ft | 441 kts | 68° |
| 2026-05-05 17:24 | 35.54415 | -79.78859 | 23701 ft | 440 kts | 69° |
| 2026-05-05 17:24 | 35.55444 | -79.75343 | 24137 ft | 440 kts | 68° |
| 2026-05-05 17:25 | 35.56502 | -79.71786 | 24442 ft | 444 kts | 68° |
| 2026-05-05 17:25 | 35.57224 | -79.69401 | 24709 ft | 445 kts | 67° |
| 2026-05-05 17:25 | 35.58670 | -79.64661 | 25174 ft | 447 kts | 67° |
| 2026-05-05 17:25 | 35.59763 | -79.61088 | 25497 ft | 449 kts | 66° |
| 2026-05-05 17:26 | 35.60853 | -79.57526 | 25736 ft | 453 kts | 66° |
| 2026-05-05 17:26 | 35.61954 | -79.53905 | 26046 ft | 455 kts | 66° |
| 2026-05-05 17:26 | 35.63072 | -79.50237 | 26429 ft | 454 kts | 66° |
| 2026-05-05 17:26 | 35.64185 | -79.46622 | 26698 ft | 457 kts | 66° |
| 2026-05-05 17:27 | 35.65314 | -79.42969 | 26952 ft | 459 kts | 66° |
| 2026-05-05 17:27 | 35.66446 | -79.39317 | 27147 ft | 463 kts | 66° |
| 2026-05-05 17:27 | 35.67594 | -79.35591 | 27472 ft | 464 kts | 66° |
| 2026-05-05 17:27 | 35.68811 | -79.31943 | 27702 ft | 464 kts | 60° |
| 2026-05-05 17:28 | 35.70425 | -79.28570 | 27926 ft | 462 kts | 50° |
| 2026-05-05 17:28 | 35.72502 | -79.25585 | 28346 ft | 454 kts | 41° |
| 2026-05-05 17:28 | 35.74815 | -79.22955 | 28533 ft | 455 kts | 36° |
| 2026-05-05 17:28 | 35.77305 | -79.20512 | 28764 ft | 455 kts | 33° |
| 2026-05-05 17:29 | 35.79844 | -79.18195 | 29125 ft | 453 kts | 32° |
| 2026-05-05 17:29 | 35.82385 | -79.15926 | 29467 ft | 452 kts | 32° |
| 2026-05-05 17:29 | 35.84930 | -79.13659 | 29807 ft | 451 kts | 32° |
| 2026-05-05 17:29 | 35.87465 | -79.11375 | 30100 ft | 451 kts | 32° |
| 2026-05-05 17:30 | 35.89979 | -79.09087 | 30388 ft | 451 kts | 32° |
| 2026-05-05 17:30 | 35.92490 | -79.06773 | 30707 ft | 450 kts | 32° |
| 2026-05-05 17:30 | 35.95029 | -79.04401 | 31031 ft | 448 kts | 32° |
| 2026-05-05 17:31 | 36.00000 | -78.99711 | 31051 ft | 451 kts | 32° |
| 2026-05-05 17:31 | 36.05022 | -78.94988 | 31052 ft | 454 kts | 32° |
| 2026-05-05 17:32 | 36.10053 | -78.90288 | 31058 ft | 457 kts | 32° |
| 2026-05-05 17:32 | 36.15165 | -78.85523 | 31050 ft | 460 kts | 32° |
| 2026-05-05 17:33 | 36.20380 | -78.80797 | 31050 ft | 461 kts | 28° |
| 2026-05-05 17:33 | 36.25912 | -78.76832 | 31048 ft | 459 kts | 22° |
| 2026-05-05 17:34 | 36.31636 | -78.73182 | 31039 ft | 462 kts | 22° |
| 2026-05-05 17:34 | 36.37375 | -78.69442 | 31036 ft | 465 kts | 22° |
| 2026-05-05 17:35 | 36.43078 | -78.65636 | 31037 ft | 467 kts | 23° |
| 2026-05-05 17:35 | 36.48804 | -78.61783 | 31026 ft | 468 kts | 23° |
| 2026-05-05 17:36 | 36.54518 | -78.57896 | 31028 ft | 468 kts | 24° |
| 2026-05-05 17:36 | 36.60211 | -78.53992 | 31015 ft | 468 kts | 24° |
| 2026-05-05 17:37 | 36.65958 | -78.50066 | 31020 ft | 468 kts | 24° |
| 2026-05-05 17:37 | 36.71650 | -78.46161 | 31025 ft | 466 kts | 24° |
| 2026-05-05 17:38 | 36.77328 | -78.42191 | 31027 ft | 466 kts | 24° |
| 2026-05-05 17:38 | 36.82983 | -78.38186 | 31017 ft | 467 kts | 24° |
| 2026-05-05 17:39 | 36.88656 | -78.34202 | 31019 ft | 466 kts | 24° |
| 2026-05-05 17:39 | 36.94330 | -78.30254 | 31008 ft | 467 kts | 25° |
| 2026-05-05 17:40 | 37.00001 | -78.26276 | 31001 ft | 468 kts | 24° |
| 2026-05-05 17:40 | 37.05700 | -78.22339 | 31002 ft | 467 kts | 24° |
| 2026-05-05 17:41 | 37.11391 | -78.18413 | 31000 ft | 464 kts | 24° |
| 2026-05-05 17:41 | 37.16436 | -78.14932 | 31002 ft | 466 kts | 24° |
| 2026-05-05 17:42 | 37.22123 | -78.10994 | 30997 ft | 466 kts | 24° |
| 2026-05-05 17:42 | 37.27793 | -78.07064 | 30992 ft | 467 kts | 24° |
| 2026-05-05 17:43 | 37.33482 | -78.03079 | 30993 ft | 469 kts | 24° |
| 2026-05-05 17:43 | 37.39105 | -77.99139 | 30776 ft | 454 kts | 24° |
| 2026-05-05 17:43 | 37.41873 | -77.97195 | 30264 ft | 449 kts | 25° |
| 2026-05-05 17:44 | 37.44575 | -77.95299 | 29634 ft | 446 kts | 25° |
| 2026-05-05 17:44 | 37.47277 | -77.93405 | 28739 ft | 450 kts | 25° |
| 2026-05-05 17:44 | 37.50040 | -77.91475 | 27940 ft | 450 kts | 26° |
| 2026-05-05 17:44 | 37.52753 | -77.89582 | 26941 ft | 448 kts | 26° |
| 2026-05-05 17:45 | 37.55461 | -77.87773 | 26097 ft | 439 kts | 23° |
| 2026-05-05 17:45 | 37.58168 | -77.86175 | 25504 ft | 426 kts | 21° |
| 2026-05-05 17:45 | 37.60856 | -77.84727 | 24879 ft | 415 kts | 20° |
| 2026-05-05 17:45 | 37.63485 | -77.83350 | 24228 ft | 405 kts | 20° |
| 2026-05-05 17:46 | 37.66082 | -77.81967 | 23591 ft | 401 kts | 21° |
| 2026-05-05 17:46 | 37.68667 | -77.80551 | 22961 ft | 412 kts | 21° |
| 2026-05-05 17:46 | 37.71317 | -77.79085 | 22302 ft | 421 kts | 21° |
| 2026-05-05 17:46 | 37.73992 | -77.77605 | 21603 ft | 414 kts | 20° |
| 2026-05-05 17:47 | 37.76584 | -77.76163 | 20934 ft | 404 kts | 20° |
| 2026-05-05 17:47 | 37.79106 | -77.74754 | 20299 ft | 394 kts | 20° |
| 2026-05-05 17:47 | 37.81568 | -77.73384 | 19673 ft | 385 kts | 19° |
| 2026-05-05 17:47 | 37.84032 | -77.72021 | 19048 ft | 385 kts | 19° |
| 2026-05-05 17:48 | 37.86507 | -77.70676 | 18427 ft | 398 kts | 19° |
| 2026-05-05 17:48 | 37.89086 | -77.69282 | 17744 ft | 400 kts | 19° |
| 2026-05-05 17:48 | 37.91622 | -77.67896 | 17095 ft | 390 kts | 19° |
| 2026-05-05 17:48 | 37.94060 | -77.66545 | 16470 ft | 382 kts | 20° |
| 2026-05-05 17:49 | 37.96464 | -77.65192 | 15843 ft | 374 kts | 20° |
| 2026-05-05 17:49 | 37.98843 | -77.63841 | 15228 ft | 376 kts | 20° |
| 2026-05-05 17:49 | 38.01273 | -77.62470 | 14598 ft | 391 kts | 20° |
| 2026-05-05 17:49 | 38.03760 | -77.61078 | 13920 ft | 391 kts | 20° |
| 2026-05-05 17:50 | 38.06204 | -77.59701 | 13248 ft | 383 kts | 21° |
| 2026-05-05 17:50 | 38.08584 | -77.58270 | 12603 ft | 377 kts | 23° |
| 2026-05-05 17:50 | 38.10900 | -77.56779 | 11967 ft | 370 kts | 24° |
| 2026-05-05 17:50 | 38.13190 | -77.55270 | 11332 ft | 364 kts | 24° |
| 2026-05-05 17:51 | 38.15060 | -77.54044 | 10933 ft | 368 kts | 24° |
| 2026-05-05 17:51 | 38.17359 | -77.52559 | 10665 ft | 364 kts | 23° |
| 2026-05-05 17:51 | 38.19574 | -77.51148 | 10454 ft | 353 kts | 23° |
| 2026-05-05 17:51 | 38.21743 | -77.49779 | 10270 ft | 342 kts | 22° |
| 2026-05-05 17:52 | 38.23857 | -77.48485 | 10072 ft | 331 kts | 19° |
| 2026-05-05 17:52 | 38.25941 | -77.47496 | 10004 ft | 315 kts | 11° |
| 2026-05-05 17:52 | 38.28037 | -77.46772 | 10008 ft | 306 kts | 8° |
| 2026-05-05 17:52 | 38.30114 | -77.46135 | 10007 ft | 309 kts | 8° |
| 2026-05-05 17:53 | 38.32212 | -77.45455 | 10005 ft | 310 kts | 9° |
| 2026-05-05 17:53 | 38.34276 | -77.44732 | 9954 ft | 307 kts | 10° |
| 2026-05-05 17:53 | 38.36313 | -77.43988 | 9697 ft | 303 kts | 11° |
| 2026-05-05 17:53 | 38.38357 | -77.43251 | 9203 ft | 308 kts | 11° |
| 2026-05-05 17:54 | 38.40433 | -77.42506 | 8790 ft | 308 kts | 11° |
| 2026-05-05 17:54 | 38.42491 | -77.41773 | 8403 ft | 308 kts | 11° |
| 2026-05-05 17:54 | 38.44572 | -77.41033 | 8015 ft | 307 kts | 11° |
| 2026-05-05 17:54 | 38.46628 | -77.40299 | 7615 ft | 307 kts | 11° |
| 2026-05-05 17:55 | 38.48672 | -77.39571 | 7220 ft | 307 kts | 11° |
| 2026-05-05 17:55 | 38.50722 | -77.38863 | 7018 ft | 298 kts | 11° |
| 2026-05-05 17:55 | 38.52695 | -77.38233 | 6954 ft | 285 kts | 9° |
| 2026-05-05 17:55 | 38.54584 | -77.37665 | 6735 ft | 279 kts | 9° |
| 2026-05-05 17:56 | 38.56484 | -77.37089 | 6397 ft | 279 kts | 9° |
| 2026-05-05 17:56 | 38.58383 | -77.36515 | 6063 ft | 279 kts | 7° |
| 2026-05-05 17:56 | 38.60310 | -77.36198 | 6013 ft | 281 kts | 359° |
| 2026-05-05 17:56 | 38.62260 | -77.36154 | 5996 ft | 282 kts | 355° |
| 2026-05-05 17:57 | 38.64238 | -77.36167 | 5997 ft | 282 kts | 356° |
| 2026-05-05 17:57 | 38.66212 | -77.36134 | 5970 ft | 281 kts | 357° |
| 2026-05-05 17:57 | 38.68149 | -77.36053 | 5714 ft | 278 kts | 358° |
| 2026-05-05 17:57 | 38.70077 | -77.35966 | 5379 ft | 277 kts | 357° |
| 2026-05-05 17:58 | 38.71982 | -77.35889 | 5026 ft | 277 kts | 357° |
| 2026-05-05 17:58 | 38.73911 | -77.35823 | 4669 ft | 277 kts | 357° |
| 2026-05-05 17:58 | 38.75847 | -77.35763 | 4309 ft | 277 kts | 357° |
| 2026-05-05 17:58 | 38.77791 | -77.35702 | 4025 ft | 274 kts | 357° |
| 2026-05-05 17:59 | 38.79666 | -77.35635 | 4005 ft | 274 kts | 357° |
| 2026-05-05 17:59 | 38.81587 | -77.35569 | 3998 ft | 276 kts | 357° |
| 2026-05-05 17:59 | 38.83524 | -77.35505 | 4011 ft | 277 kts | 357° |
| 2026-05-05 17:59 | 38.85455 | -77.35432 | 4007 ft | 279 kts | 357° |
| 2026-05-05 18:00 | 38.87380 | -77.35348 | 4003 ft | 277 kts | 358° |
| 2026-05-05 18:00 | 38.89314 | -77.35254 | 4005 ft | 277 kts | 358° |
| 2026-05-05 18:00 | 38.91254 | -77.35171 | 4004 ft | 276 kts | 358° |
| 2026-05-05 18:00 | 38.93189 | -77.35105 | 4004 ft | 276 kts | 357° |
| 2026-05-05 18:01 | 38.95107 | -77.35050 | 4002 ft | 277 kts | 357° |
| 2026-05-05 18:01 | 38.97022 | -77.35005 | 4002 ft | 276 kts | 357° |
| 2026-05-05 18:01 | 38.98940 | -77.34953 | 4003 ft | 275 kts | 358° |
| 2026-05-05 18:01 | 39.00873 | -77.34892 | 4005 ft | 276 kts | 358° |
| 2026-05-05 18:02 | 39.02805 | -77.34817 | 4009 ft | 277 kts | 358° |
| 2026-05-05 18:02 | 39.04723 | -77.34738 | 4007 ft | 277 kts | 358° |
| 2026-05-05 18:02 | 39.06645 | -77.34649 | 4005 ft | 277 kts | 358° |
| 2026-05-05 18:02 | 39.08579 | -77.34558 | 4007 ft | 277 kts | 358° |
| 2026-05-05 18:03 | 39.10509 | -77.34482 | 4008 ft | 278 kts | 358° |
| 2026-05-05 18:03 | 39.12460 | -77.34409 | 4008 ft | 278 kts | 357° |
| 2026-05-05 18:03 | 39.14419 | -77.34344 | 4008 ft | 278 kts | 358° |
| 2026-05-05 18:03 | 39.16334 | -77.34273 | 4007 ft | 277 kts | 358° |
| 2026-05-05 18:04 | 39.18272 | -77.34207 | 4009 ft | 277 kts | 357° |
| 2026-05-05 18:04 | 39.20210 | -77.34152 | 4010 ft | 279 kts | 357° |
| 2026-05-05 18:04 | 39.22151 | -77.34105 | 4008 ft | 278 kts | 357° |
| 2026-05-05 18:04 | 39.24088 | -77.34055 | 4010 ft | 278 kts | 357° |
| 2026-05-05 18:05 | 39.26011 | -77.33996 | 4013 ft | 279 kts | 358° |
| 2026-05-05 18:05 | 39.27975 | -77.33924 | 4012 ft | 279 kts | 358° |
| 2026-05-05 18:05 | 39.29890 | -77.33847 | 3972 ft | 277 kts | 358° |
| 2026-05-05 18:05 | 39.31832 | -77.33771 | 3617 ft | 278 kts | 357° |
| 2026-05-05 18:06 | 39.33711 | -77.34087 | 3183 ft | 272 kts | 332° |
| 2026-05-05 18:06 | 39.34748 | -77.34933 | 2908 ft | 262 kts | 308° |
| 2026-05-05 18:06 | 39.35607 | -77.37618 | 2457 ft | 240 kts | 262° |
| 2026-05-05 18:06 | 39.35018 | -77.39554 | 2119 ft | 232 kts | 226° |
| 2026-05-05 18:07 | 39.33709 | -77.40678 | 1993 ft | 227 kts | 204° |
| 2026-05-05 18:07 | 39.32200 | -77.41396 | 1978 ft | 231 kts | 201° |
| 2026-05-05 18:07 | 39.30683 | -77.42054 | 1971 ft | 232 kts | 201° |
| 2026-05-05 18:07 | 39.29124 | -77.42672 | 1971 ft | 231 kts | 194° |
| 2026-05-05 18:08 | 39.27543 | -77.42945 | 1978 ft | 234 kts | 187° |
| 2026-05-05 18:08 | 39.25890 | -77.43015 | 1977 ft | 237 kts | 185° |
| 2026-05-05 18:08 | 39.24243 | -77.43051 | 1975 ft | 234 kts | 185° |
| 2026-05-05 18:08 | 39.22626 | -77.43098 | 1974 ft | 230 kts | 186° |
| 2026-05-05 18:09 | 39.21003 | -77.43198 | 1982 ft | 233 kts | 187° |
| 2026-05-05 18:09 | 39.19402 | -77.43328 | 1982 ft | 231 kts | 187° |
| 2026-05-05 18:09 | 39.17719 | -77.43452 | 1977 ft | 242 kts | 187° |
| 2026-05-05 18:09 | 39.16096 | -77.43583 | 1973 ft | 226 kts | 188° |
| 2026-05-05 18:10 | 39.14588 | -77.43803 | 1979 ft | 210 kts | 191° |
| 2026-05-05 18:10 | 39.13189 | -77.44044 | 1982 ft | 198 kts | 191° |
| 2026-05-05 18:10 | 39.11825 | -77.44263 | 1980 ft | 191 kts | 191° |
| 2026-05-05 18:10 | 39.10530 | -77.44469 | 1971 ft | 181 kts | 191° |
| 2026-05-05 18:11 | 39.09328 | -77.44642 | 1980 ft | 171 kts | 190° |
| 2026-05-05 18:11 | 39.08123 | -77.44794 | 1977 ft | 174 kts | 191° |
| 2026-05-05 18:11 | 39.06970 | -77.45062 | 1982 ft | 169 kts | 199° |
| 2026-05-05 18:11 | 39.05861 | -77.45587 | 1889 ft | 168 kts | 204° |
| 2026-05-05 18:12 | 39.04722 | -77.45829 | 1710 ft | 170 kts | 183° |
| 2026-05-05 18:12 | 39.03561 | -77.45826 | 1520 ft | 166 kts | 187° |
| 2026-05-05 18:12 | 39.02409 | -77.45835 | 1298 ft | 161 kts | 184° |
| 2026-05-05 18:12 | 39.01324 | -77.45859 | 1087 ft | 152 kts | 187° |
| 2026-05-05 18:13 | 39.00267 | -77.45874 | 898 ft | 149 kts | 188° |
| 2026-05-05 18:13 | 38.99247 | -77.45889 | 725 ft | 138 kts | 181° |
| 2026-05-05 18:13 | 38.98269 | -77.45922 | 563 ft | 142 kts | 179° |
| 2026-05-05 18:13 | 38.97319 | -77.45916 | 358 ft | 135 kts | 185° |
| 2026-05-05 18:14 | 38.96383 | -77.45932 | 277 ft | 127 kts | 183° |
| 2026-05-05 18:14 | 38.95584 | -77.45997 | 278 ft | 90 kts | 175° |
| 2026-05-05 18:14 | 38.95045 | -77.45932 | 283 ft | 59 kts | 160° |
| 2026-05-05 18:14 | 38.94883 | -77.45828 | 286 ft | 0 kts | 152° |
| 2026-05-05 18:15 | 38.94849 | -77.45801 | 287 ft | 21 kts | 146° |
| 2026-05-05 18:16 | 38.94736 | -77.45538 | 289 ft | 35 kts | 94° |
| 2026-05-05 18:16 | 38.94748 | -77.45348 | 292 ft | 22 kts | 47° |
| 2026-05-05 18:16 | 38.94781 | -77.45328 | 291 ft | 0 kts | 4° |